createdAt,value
2023-04-25T00:00:59.651Z,10.63
2023-04-25T00:03:32.070Z,10.67
2023-04-25T00:06:03.019Z,10.84
2023-04-25T00:08:32.243Z,10.77
2023-04-25T00:11:00.967Z,10.60
2023-04-25T00:13:29.740Z,10.77
2023-04-25T00:15:59.302Z,10.89
2023-04-25T00:18:29.766Z,10.83
2023-04-25T00:20:59.473Z,10.68
2023-04-25T00:23:27.816Z,10.53
2023-04-25T00:25:56.110Z,10.68
2023-04-25T00:28:24.521Z,10.74
2023-04-25T00:30:52.849Z,10.96
2023-04-25T00:33:21.215Z,10.73
2023-04-25T00:35:49.548Z,10.69
2023-04-25T00:38:19.165Z,10.58
2023-04-25T00:40:47.420Z,10.60
2023-04-25T00:43:15.872Z,10.76
2023-04-25T00:45:45.732Z,10.59
2023-04-25T00:48:15.313Z,10.53
2023-04-25T00:50:43.986Z,10.51
2023-04-25T00:53:12.299Z,10.54
2023-04-25T00:55:42.109Z,10.58
2023-04-25T00:58:10.608Z,10.58
2023-04-25T01:00:39.178Z,10.41
2023-04-25T01:03:07.773Z,10.34
2023-04-25T01:05:36.445Z,10.36
2023-04-25T01:08:04.891Z,10.35
2023-04-25T01:10:33.213Z,10.39
2023-04-25T01:13:03.125Z,10.42
2023-04-25T01:15:31.538Z,10.07
2023-04-25T01:18:02.236Z,10.38
2023-04-25T01:20:31.340Z,10.69
2023-04-25T01:23:01.415Z,10.40
2023-04-25T01:25:29.919Z,10.22
2023-04-25T01:27:59.301Z,10.04
2023-04-25T01:30:29.008Z,9.98
2023-04-25T01:32:58.447Z,10.04
2023-04-25T01:35:27.082Z,10.02
2023-04-25T01:37:56.026Z,9.97
2023-04-25T01:40:26.595Z,9.82
2023-04-25T01:42:54.978Z,9.83
2023-04-25T01:45:23.522Z,9.63
2023-04-25T01:47:52.560Z,9.60
2023-04-25T01:50:21.697Z,9.60
2023-04-25T01:52:50.795Z,9.62
2023-04-25T01:55:20.906Z,9.57
2023-04-25T01:58:02.666Z,9.49
2023-04-25T02:00:52.859Z,9.32
2023-04-25T02:03:21.688Z,9.35
2023-04-25T02:05:50.864Z,9.74
2023-04-25T02:08:19.924Z,9.44
2023-04-25T02:10:48.276Z,9.16
2023-04-25T02:13:21.477Z,9.11
2023-04-25T02:16:12.778Z,9.15
2023-04-25T02:18:41.369Z,9.07
2023-04-25T02:21:09.742Z,9.11
2023-04-25T02:23:38.076Z,9.12
2023-04-25T02:26:06.600Z,8.99
2023-04-25T02:28:36.354Z,9.07
2023-04-25T02:31:06.888Z,8.76
2023-04-25T02:33:35.564Z,8.72
2023-04-25T02:36:04.418Z,8.76
2023-04-25T02:38:32.648Z,9.01
2023-04-25T02:41:00.964Z,9.40
2023-04-25T02:43:29.434Z,8.78
2023-04-25T02:45:59.125Z,9.31
2023-04-25T02:48:28.176Z,8.78
2023-04-25T02:50:56.956Z,8.68
2023-04-25T02:53:25.736Z,8.52
2023-04-25T02:55:55.732Z,8.46
2023-04-25T02:58:24.589Z,8.37
2023-04-25T03:00:54.677Z,8.27
2023-04-25T03:03:24.692Z,8.09
2023-04-25T03:05:53.968Z,8.08
2023-04-25T03:08:33.626Z,7.81
2023-04-25T03:11:03.166Z,7.92
2023-04-25T03:13:31.625Z,7.81
2023-04-25T03:16:00.758Z,7.76
2023-04-25T03:18:30.692Z,7.81
2023-04-25T03:20:58.901Z,7.73
2023-04-25T03:23:27.232Z,7.61
2023-04-25T03:25:55.581Z,7.79
2023-04-25T03:28:24.176Z,7.94
2023-04-25T03:30:53.129Z,8.00
2023-04-25T03:33:22.433Z,8.15
2023-04-25T03:35:54.168Z,8.37
2023-04-25T03:38:22.865Z,8.45
2023-04-25T03:40:52.537Z,8.75
2023-04-25T03:43:36.012Z,8.56
2023-04-25T03:46:09.011Z,8.51
2023-04-25T03:48:37.731Z,8.49
2023-04-25T03:51:07.746Z,8.47
2023-04-25T03:53:39.614Z,8.51
2023-04-25T03:56:26.487Z,8.38
2023-04-25T03:59:02.382Z,8.61
2023-04-25T04:01:32.296Z,8.64
2023-04-25T04:04:00.825Z,8.72
2023-04-25T04:06:31.516Z,8.74
2023-04-25T04:09:09.568Z,8.68
2023-04-25T04:11:39.544Z,8.86
2023-04-25T04:14:08.680Z,8.81
2023-04-25T04:16:39.422Z,8.87
2023-04-25T04:19:07.653Z,8.95
2023-04-25T04:21:37.814Z,8.89
2023-04-25T04:24:07.385Z,8.42
2023-04-25T04:26:48.463Z,8.37
2023-04-25T04:29:46.302Z,6.62
2023-04-25T04:32:26.400Z,7.95
2023-04-25T04:34:56.009Z,7.11
2023-04-25T04:37:26.973Z,7.91
2023-04-25T04:39:55.518Z,8.66
2023-04-25T04:42:32.643Z,7.45
2023-04-25T04:45:02.776Z,6.34
2023-04-25T04:48:00.933Z,6.04
2023-04-25T04:51:05.324Z,5.95
2023-04-25T04:53:52.235Z,6.24
2023-04-25T04:56:36.132Z,7.98
2023-04-25T04:59:23.664Z,8.12
2023-04-25T05:02:04.218Z,8.55
2023-04-25T05:04:38.673Z,8.53
2023-04-25T05:07:21.983Z,8.74
2023-04-25T05:10:11.692Z,9.02
2023-04-25T05:13:06.608Z,9.07
2023-04-25T05:15:37.698Z,9.06
2023-04-25T05:18:31.351Z,9.25
2023-04-25T05:21:19.495Z,8.20
2023-04-25T05:24:06.707Z,9.12
2023-04-25T05:26:48.422Z,9.22
2023-04-25T05:29:37.611Z,9.49
2023-04-25T05:32:28.261Z,9.36
2023-04-25T05:34:57.461Z,9.10
2023-04-25T05:37:33.935Z,9.31
2023-04-25T05:40:13.587Z,9.41
2023-04-25T05:43:15.355Z,9.56
2023-04-25T05:45:57.533Z,9.54
2023-04-25T05:48:32.261Z,9.33
2023-04-25T05:51:19.496Z,9.45
2023-04-25T05:54:07.712Z,9.55
2023-04-25T05:56:36.916Z,9.41
2023-04-25T05:59:07.088Z,9.38
2023-04-25T06:01:35.413Z,9.51
2023-04-25T06:04:04.239Z,9.45
2023-04-25T06:06:34.917Z,9.53
2023-04-25T06:09:03.816Z,9.68
2023-04-25T06:11:33.447Z,9.74
2023-04-25T06:14:01.771Z,9.79
2023-04-25T06:16:32.008Z,9.81
2023-04-25T06:19:01.497Z,9.75
2023-04-25T06:21:29.878Z,9.82
2023-04-25T06:23:58.291Z,10.00
2023-04-25T06:26:27.425Z,10.13
2023-04-25T06:28:56.398Z,9.97
2023-04-25T06:31:27.710Z,10.07
2023-04-25T06:33:58.948Z,10.35
2023-04-25T06:36:28.908Z,10.51
2023-04-25T06:39:03.579Z,10.68
2023-04-25T06:41:31.990Z,10.68
2023-04-25T06:44:03.667Z,10.56
2023-04-25T06:46:37.417Z,10.58
2023-04-25T06:49:07.681Z,10.69
2023-04-25T06:51:36.231Z,10.89
2023-04-25T06:54:05.496Z,11.01
2023-04-25T06:56:44.488Z,11.06
2023-04-25T06:59:15.793Z,11.34
2023-04-25T07:01:46.537Z,11.36
2023-04-25T07:04:28.049Z,11.47
2023-04-25T07:06:58.705Z,11.72
2023-04-25T07:09:37.128Z,11.87
2023-04-25T07:12:07.398Z,11.83
2023-04-25T07:14:36.659Z,11.89
2023-04-25T07:17:07.715Z,12.14
2023-04-25T07:19:40.975Z,11.85
2023-04-25T07:22:10.213Z,12.39
2023-04-25T07:24:41.315Z,10.79
2023-04-25T07:27:11.664Z,12.31
2023-04-25T07:30:00.370Z,12.49
2023-04-25T07:32:30.501Z,12.79
2023-04-25T07:35:00.579Z,12.90
2023-04-25T07:37:29.013Z,12.94
2023-04-25T07:40:06.373Z,13.04
2023-04-25T07:42:34.864Z,13.17
2023-04-25T07:45:04.822Z,13.34
2023-04-25T07:47:33.462Z,13.92
2023-04-25T07:50:03.920Z,13.52
2023-04-25T07:52:33.407Z,13.84
2023-04-25T07:55:10.480Z,13.87
2023-04-25T07:58:00.652Z,14.23
2023-04-25T08:00:35.737Z,14.40
2023-04-25T08:03:25.563Z,14.44
2023-04-25T08:06:02.765Z,14.71
2023-04-25T08:08:35.694Z,13.29
2023-04-25T08:11:05.044Z,12.96
2023-04-25T08:13:33.381Z,13.15
2023-04-25T08:16:01.754Z,13.41
2023-04-25T08:18:30.258Z,13.79
2023-04-25T08:21:02.254Z,15.17
2023-04-25T08:23:30.574Z,16.25
2023-04-25T08:26:08.050Z,16.35
2023-04-25T08:28:39.380Z,16.67
2023-04-25T08:31:08.162Z,14.71
2023-04-25T08:33:46.789Z,14.28
2023-04-25T08:36:42.750Z,14.86
2023-04-25T08:39:40.466Z,15.01
2023-04-25T08:42:33.488Z,15.25
2023-04-25T08:45:06.583Z,15.04
2023-04-25T08:47:40.311Z,15.11
2023-04-25T08:50:09.476Z,15.02
2023-04-25T08:52:45.886Z,15.07
2023-04-25T08:55:15.446Z,15.01
2023-04-25T08:57:44.936Z,15.02
2023-04-25T09:00:15.226Z,15.01
2023-04-25T09:02:46.054Z,15.35
2023-04-25T09:05:15.669Z,15.47
2023-04-25T09:07:46.997Z,15.95
2023-04-25T09:10:16.693Z,15.76
2023-04-25T09:12:46.478Z,15.73
2023-04-25T09:18:06.314Z,17.69
2023-04-25T09:20:56.538Z,17.86
2023-04-25T09:23:30.993Z,18.46
2023-04-25T09:25:59.679Z,18.41
2023-04-25T09:28:30.893Z,18.14
2023-04-25T09:31:01.221Z,17.99
2023-04-25T09:33:37.940Z,17.89
2023-04-25T09:36:12.223Z,18.39
2023-04-25T09:38:54.878Z,18.40
2023-04-25T09:41:30.406Z,18.74
2023-04-25T09:44:03.513Z,19.03
2023-04-25T09:46:38.666Z,19.24
2023-04-25T09:49:19.091Z,19.41
2023-04-25T09:51:58.022Z,19.06
2023-04-25T09:54:30.749Z,18.98
2023-04-25T09:57:21.179Z,19.37
2023-04-25T09:59:51.227Z,19.13
2023-04-25T10:02:21.504Z,19.49
2023-04-25T10:04:56.283Z,19.38
2023-04-25T10:07:36.406Z,19.07
2023-04-25T10:10:07.272Z,19.26
2023-04-25T10:12:36.185Z,19.58
2023-04-25T10:15:05.664Z,19.61
2023-04-25T10:17:34.592Z,19.42
2023-04-25T10:20:07.272Z,19.65
2023-04-25T10:22:38.194Z,19.96
2023-04-25T10:25:09.545Z,20.24
2023-04-25T10:27:38.318Z,21.12
2023-04-25T10:30:11.700Z,20.84
2023-04-25T10:32:40.066Z,20.57
2023-04-25T10:35:17.958Z,20.32
2023-04-25T10:38:04.291Z,20.88
2023-04-25T10:40:34.730Z,21.06
2023-04-25T10:43:41.432Z,21.90
2023-04-25T10:46:20.437Z,21.65
2023-04-25T10:48:51.885Z,21.62
2023-04-25T10:51:25.550Z,21.57
2023-04-25T10:54:02.767Z,21.19
2023-04-25T10:56:33.451Z,20.46
2023-04-25T10:59:10.996Z,20.65
2023-04-25T11:01:41.672Z,20.29
2023-04-25T11:04:23.004Z,20.93
2023-04-25T11:09:56.391Z,21.37
2023-04-25T11:12:27.664Z,21.79
2023-04-25T11:14:37.937Z,20.64
2023-04-25T11:15:02.204Z,21.56
2023-04-25T11:17:31.329Z,22.23
2023-04-25T11:19:59.774Z,21.32
2023-04-25T11:22:29.654Z,20.98
2023-04-25T11:24:57.960Z,20.93
2023-04-25T11:27:27.657Z,20.63
2023-04-25T11:29:56.002Z,20.41
2023-04-25T11:32:27.663Z,20.56
2023-04-25T11:34:56.628Z,20.17
2023-04-25T11:37:24.909Z,20.20
2023-04-25T11:39:53.981Z,20.24
2023-04-25T11:42:24.755Z,20.26
2023-04-25T11:44:54.612Z,19.53
2023-04-25T11:47:30.903Z,18.72
2023-04-25T11:50:01.018Z,18.45
2023-04-25T11:52:39.010Z,18.60
2023-04-25T11:55:11.247Z,18.03
2023-04-25T11:57:40.905Z,17.29
2023-04-25T12:00:16.536Z,17.02
2023-04-25T12:02:48.202Z,16.62
2023-04-25T12:05:30.973Z,16.56
2023-04-25T12:08:01.021Z,16.42
2023-04-25T12:10:29.517Z,16.42
2023-04-25T12:12:57.900Z,16.92
2023-04-25T12:15:27.924Z,16.99
2023-04-25T12:17:57.694Z,17.10
2023-04-25T12:20:28.139Z,17.41
2023-04-25T12:22:56.729Z,17.40
2023-04-25T12:25:39.550Z,18.24
2023-04-25T12:28:15.762Z,18.88
2023-04-25T12:31:00.041Z,19.13
2023-04-25T12:33:29.839Z,19.98
2023-04-25T12:35:58.732Z,19.13
2023-04-25T12:38:28.680Z,19.56
2023-04-25T12:40:56.956Z,19.75
2023-04-25T12:43:25.360Z,19.88
2023-04-25T12:45:57.009Z,20.00
2023-04-25T12:48:26.892Z,20.01
2023-04-25T12:50:55.201Z,19.93
2023-04-25T12:53:24.901Z,20.68
2023-04-25T12:58:21.698Z,20.93
2023-04-25T13:00:50.188Z,20.44
2023-04-25T13:03:19.124Z,20.48
2023-04-25T13:05:49.342Z,20.25
2023-04-25T13:08:17.744Z,21.03
2023-04-25T13:10:46.061Z,20.99
2023-04-25T13:13:14.450Z,20.61
2023-04-25T13:15:42.946Z,19.71
2023-04-25T13:18:11.520Z,19.39
2023-04-25T13:20:39.947Z,19.54
2023-04-25T13:23:10.014Z,19.55
2023-04-25T13:25:38.342Z,19.99
2023-04-25T13:28:07.055Z,19.88
2023-04-25T13:30:36.176Z,20.23
2023-04-25T13:33:05.178Z,20.40
2023-04-25T13:35:33.514Z,20.42
2023-04-25T13:38:02.102Z,20.42
2023-04-25T13:40:33.072Z,20.46
2023-04-25T13:43:01.498Z,20.54
2023-04-25T13:45:31.541Z,20.92
2023-04-25T13:48:01.702Z,21.19
2023-04-25T13:50:30.108Z,21.22
2023-04-25T13:52:58.459Z,20.66
2023-04-25T13:55:26.794Z,20.48
2023-04-25T13:57:56.572Z,20.45
2023-04-25T14:00:24.986Z,20.75
2023-04-25T14:02:53.447Z,20.82
2023-04-25T14:05:21.804Z,20.37
2023-04-25T14:07:50.224Z,21.13
2023-04-25T14:10:18.529Z,21.39
2023-04-25T14:12:47.050Z,21.38
2023-04-25T14:15:16.994Z,20.77
2023-04-25T14:17:46.966Z,20.83
2023-04-25T14:20:15.646Z,20.81
2023-04-25T14:22:44.840Z,20.49
2023-04-25T14:25:13.103Z,20.33
2023-04-25T14:27:41.515Z,20.21
2023-04-25T14:30:12.968Z,19.87
2023-04-25T14:32:42.960Z,19.27
2023-04-25T14:35:11.513Z,19.08
2023-04-25T14:37:40.452Z,19.13
2023-04-25T14:40:11.841Z,18.84
2023-04-25T14:42:40.335Z,18.94
2023-04-25T14:45:09.778Z,18.68
2023-04-25T14:47:38.915Z,18.41
2023-04-25T14:50:10.445Z,18.44
2023-04-25T14:52:38.935Z,18.74
2023-04-25T14:55:08.545Z,18.28
2023-04-25T14:57:37.351Z,18.29
2023-04-25T15:00:10.134Z,18.59
2023-04-25T15:02:39.243Z,18.28
2023-04-25T15:05:11.255Z,18.43
2023-04-25T15:07:40.503Z,18.49
2023-04-25T15:10:14.617Z,18.57
2023-04-25T15:12:42.937Z,18.90
2023-04-25T15:15:14.230Z,18.06
2023-04-25T15:17:46.466Z,17.43
2023-04-25T15:20:16.309Z,17.63
2023-04-25T15:22:46.033Z,17.56
2023-04-25T15:25:14.363Z,17.60
2023-04-25T15:27:44.716Z,17.96
2023-04-25T15:30:14.828Z,18.19
2023-04-25T15:32:43.358Z,17.63
2023-04-25T15:35:12.261Z,17.69
2023-04-25T15:37:43.634Z,17.79
2023-04-25T15:40:14.162Z,17.75
2023-04-25T15:42:43.890Z,17.62
2023-04-25T15:45:14.725Z,17.65
2023-04-25T15:47:45.955Z,17.58
2023-04-25T15:50:16.224Z,17.43
2023-04-25T15:52:51.421Z,18.00
2023-04-25T15:55:21.187Z,17.12
2023-04-25T15:57:54.073Z,16.84
2023-04-25T16:00:33.149Z,17.66
2023-04-25T16:03:02.923Z,18.06
2023-04-25T16:05:35.581Z,17.56
2023-04-25T16:08:06.872Z,18.10
2023-04-25T16:10:39.528Z,18.57
2023-04-25T16:13:18.573Z,18.75
2023-04-25T16:15:49.331Z,18.98
2023-04-25T16:18:20.327Z,18.74
2023-04-25T16:21:02.958Z,18.08
2023-04-25T16:23:37.053Z,18.13
2023-04-25T16:26:05.702Z,18.35
2023-04-25T16:28:36.021Z,18.31
2023-04-25T16:31:06.488Z,18.51
2023-04-25T16:33:35.716Z,18.19
2023-04-25T16:36:03.927Z,18.57
2023-04-25T16:38:35.232Z,18.78
2023-04-25T16:41:03.559Z,18.69
2023-04-25T16:43:32.041Z,18.29
2023-04-25T16:46:01.522Z,18.47
2023-04-25T16:48:31.426Z,17.46
2023-04-25T16:51:00.822Z,17.73
2023-04-25T16:53:29.508Z,17.84
2023-04-25T16:55:59.515Z,17.21
2023-04-25T16:58:29.080Z,17.68
2023-04-25T17:01:00.228Z,18.28
2023-04-25T17:03:29.497Z,17.82
2023-04-25T17:06:04.648Z,18.15
2023-04-25T17:08:33.479Z,17.67
2023-04-25T17:11:03.730Z,17.45
2023-04-25T17:13:33.175Z,17.40
2023-04-25T17:16:02.311Z,17.17
2023-04-25T17:18:31.182Z,16.49
2023-04-25T17:20:59.591Z,16.59
2023-04-25T17:23:28.506Z,16.77
2023-04-25T17:25:57.272Z,15.71
2023-04-25T17:28:27.053Z,15.64
2023-04-25T17:30:56.747Z,15.75
2023-04-25T17:33:27.462Z,15.31
2023-04-25T17:35:57.146Z,14.91
2023-04-25T17:38:25.623Z,14.94
2023-04-25T17:40:55.496Z,14.59
2023-04-25T17:43:24.111Z,14.68
2023-04-25T17:45:54.057Z,14.50
2023-04-25T17:48:23.166Z,14.67
2023-04-25T17:50:51.859Z,14.37
2023-04-25T17:53:20.408Z,14.30
2023-04-25T17:55:50.946Z,14.10
2023-04-25T17:58:20.181Z,13.88
2023-04-25T18:00:49.065Z,14.15
2023-04-25T18:03:19.534Z,14.11
2023-04-25T18:05:48.332Z,13.79
2023-04-25T18:08:18.035Z,14.03
2023-04-25T18:10:46.433Z,13.41
2023-04-25T18:13:17.430Z,13.62
2023-04-25T18:15:46.340Z,13.29
2023-04-25T18:18:26.037Z,13.11
2023-04-25T18:20:59.210Z,13.14
2023-04-25T18:23:29.013Z,13.18
2023-04-25T18:25:57.799Z,13.39
2023-04-25T18:28:26.864Z,13.39
2023-04-25T18:30:56.931Z,13.22
2023-04-25T18:33:27.358Z,13.28
2023-04-25T18:36:01.068Z,13.26
2023-04-25T18:41:18.326Z,13.24
2023-04-25T18:43:54.118Z,13.56
2023-04-25T18:46:24.236Z,13.07
2023-04-25T18:48:54.331Z,13.02
2023-04-25T18:51:28.232Z,13.14
2023-04-25T18:53:57.603Z,13.33
2023-04-25T18:56:27.932Z,12.59
2023-04-25T18:58:57.866Z,12.68
2023-04-25T19:01:27.599Z,12.97
2023-04-25T19:03:57.460Z,13.12
2023-04-25T19:06:29.942Z,13.29
2023-04-25T19:08:58.979Z,13.00
2023-04-25T19:11:28.331Z,12.77
2023-04-25T19:13:58.265Z,13.20
2023-04-25T19:16:28.045Z,13.05
2023-04-25T19:18:58.551Z,12.80
2023-04-25T19:21:33.266Z,13.06
2023-04-25T19:24:03.684Z,12.71
2023-04-25T19:26:33.339Z,12.97
2023-04-25T19:29:07.589Z,12.55
2023-04-25T19:31:37.276Z,12.48
2023-04-25T19:34:07.132Z,12.50
2023-04-25T19:36:38.954Z,12.56
2023-04-25T19:39:11.504Z,12.96
2023-04-25T19:41:41.455Z,13.21
2023-04-25T19:44:11.235Z,13.02
2023-04-25T19:46:40.511Z,12.93
2023-04-25T19:49:10.390Z,12.95
2023-04-25T19:51:41.977Z,12.77
2023-04-25T19:54:10.558Z,13.01
2023-04-25T19:56:39.879Z,12.77
2023-04-25T19:59:09.031Z,13.02
2023-04-25T20:01:37.718Z,12.58
2023-04-25T20:04:09.168Z,12.33
2023-04-25T20:06:38.424Z,12.30
2023-04-25T20:09:20.490Z,12.61
2023-04-25T20:11:54.397Z,12.39
2023-04-25T20:14:43.883Z,12.45
2023-04-25T20:17:16.411Z,12.24
2023-04-25T20:19:44.778Z,11.97
2023-04-25T20:22:13.657Z,11.90
2023-04-25T20:24:43.348Z,11.78
2023-04-25T20:27:12.047Z,11.81
2023-04-25T20:29:42.574Z,11.64
2023-04-25T20:32:12.937Z,11.49
2023-04-25T20:34:42.316Z,11.23
2023-04-25T20:37:11.307Z,11.04
2023-04-25T20:39:39.714Z,11.08
2023-04-25T20:42:09.854Z,10.91
2023-04-25T20:44:40.795Z,10.86
2023-04-25T20:47:09.714Z,10.80
2023-04-25T20:49:38.278Z,11.21
2023-04-25T20:52:07.832Z,11.13
2023-04-25T20:54:36.442Z,11.10
2023-04-25T20:57:06.628Z,11.01
2023-04-25T20:59:38.762Z,10.84
2023-04-25T21:02:07.395Z,10.64
2023-04-25T21:04:37.924Z,10.49
2023-04-25T21:07:06.970Z,10.39
2023-04-25T21:09:37.644Z,10.33
2023-04-25T21:12:10.148Z,10.26
2023-04-25T21:14:39.997Z,10.17
2023-04-25T21:17:08.394Z,10.27
2023-04-25T21:19:36.671Z,10.10
2023-04-25T21:22:04.881Z,10.05
2023-04-25T21:24:34.618Z,9.96
2023-04-25T21:27:05.426Z,10.05
2023-04-25T21:29:35.663Z,9.98
2023-04-25T21:32:09.832Z,9.90
2023-04-25T21:34:38.490Z,9.99
2023-04-25T21:37:09.851Z,9.88
2023-04-25T21:39:38.284Z,9.93
2023-04-25T21:42:09.269Z,9.95
2023-04-25T21:44:39.434Z,10.02
2023-04-25T21:47:10.759Z,9.86
2023-04-25T21:49:39.266Z,9.88
2023-04-25T21:52:07.552Z,9.77
2023-04-25T21:54:36.634Z,9.84
2023-04-25T21:57:04.983Z,9.82
2023-04-25T21:59:33.137Z,9.71
2023-04-25T22:02:01.386Z,9.61
2023-04-25T22:04:31.098Z,9.72
2023-04-25T22:06:59.522Z,9.83
2023-04-25T22:09:27.747Z,9.78
2023-04-25T22:11:57.050Z,10.05
2023-04-25T22:14:26.754Z,9.93
2023-04-25T22:16:56.103Z,9.83
2023-04-25T22:19:24.381Z,10.16
2023-04-25T22:21:53.970Z,10.19
2023-04-25T22:24:22.286Z,9.97
2023-04-25T22:26:50.567Z,9.94
2023-04-25T22:29:18.751Z,9.94
2023-04-25T22:31:47.125Z,9.90
2023-04-25T22:34:15.529Z,9.88
2023-04-25T22:36:44.067Z,10.37
2023-04-25T22:39:15.405Z,10.30
2023-04-25T22:41:43.843Z,10.52
2023-04-25T22:44:12.255Z,10.44
2023-04-25T22:46:40.666Z,10.20
2023-04-25T22:49:08.860Z,10.26
2023-04-25T22:51:37.150Z,10.52
2023-04-25T22:54:05.630Z,10.30
2023-04-25T22:56:35.294Z,10.45
2023-04-25T22:59:04.464Z,10.29
2023-04-25T23:01:32.817Z,10.01
2023-04-25T23:04:01.375Z,10.11
2023-04-25T23:06:29.786Z,9.66
2023-04-25T23:08:58.000Z,9.71
2023-04-25T23:11:26.277Z,9.46
2023-04-25T23:13:56.440Z,9.43
2023-04-25T23:16:24.677Z,9.43
2023-04-25T23:18:53.151Z,9.28
2023-04-25T23:21:21.708Z,9.25
2023-04-25T23:23:50.390Z,9.13
2023-04-25T23:26:18.945Z,8.99
2023-04-25T23:28:47.176Z,9.25
2023-04-25T23:31:16.954Z,9.13
2023-04-25T23:33:45.133Z,8.85
2023-04-25T23:36:23.953Z,8.93
2023-04-25T23:38:52.613Z,8.97
2023-04-25T23:41:20.977Z,9.12
2023-04-25T23:43:49.323Z,9.28
2023-04-25T23:46:35.485Z,8.96
2023-04-25T23:49:04.623Z,8.78
2023-04-25T23:51:33.881Z,8.60
2023-04-25T23:54:04.225Z,8.40
2023-04-25T23:56:33.526Z,8.64
2023-04-25T23:59:01.745Z,8.45
